createdAt,value
2022-10-05T00:01:45.533Z,101666.47
2022-10-05T00:04:13.351Z,101671.63
2022-10-05T00:06:39.862Z,101663.25
2022-10-05T00:09:21.231Z,101658.88
2022-10-05T00:11:49.050Z,101641.69
2022-10-05T00:14:22.141Z,101643.78
2022-10-05T00:16:49.232Z,101640.16
2022-10-05T00:19:23.443Z,101629.31
2022-10-05T00:21:49.869Z,101625.22
2022-10-05T00:24:19.351Z,101619.88
2022-10-05T00:26:46.403Z,101618.19
2022-10-05T00:29:21.708Z,101614.06
2022-10-05T00:31:49.066Z,101611.97
2022-10-05T00:34:16.946Z,101601.41
2022-10-05T00:36:43.760Z,101591.97
2022-10-05T00:39:10.513Z,101601.09
2022-10-05T00:42:03.178Z,101591.19
2022-10-05T00:44:43.286Z,101576.91
2022-10-05T00:47:18.870Z,101560.72
2022-10-05T00:49:57.543Z,101563.97
2022-10-05T00:52:40.980Z,101555.88
2022-10-05T00:55:33.975Z,101559.59
2022-10-05T00:58:14.602Z,101542.63
2022-10-05T01:01:13.385Z,101544.72
2022-10-05T01:03:45.929Z,101528.34
2022-10-05T01:07:11.498Z,101532.16
2022-10-05T01:10:15.969Z,101526.91
2022-10-05T01:13:12.051Z,101525.31
2022-10-05T01:15:50.264Z,101529.47
2022-10-05T01:18:27.790Z,101527.19
2022-10-05T01:21:03.486Z,101514.53
2022-10-05T01:23:42.690Z,101518.94
2022-10-05T01:26:43.368Z,101517.09
2022-10-05T01:29:22.523Z,101512.91
2022-10-05T01:32:14.035Z,101513.28
2022-10-05T01:34:49.520Z,101513.78
2022-10-05T01:37:34.285Z,101501.97
2022-10-05T01:40:38.981Z,101506.47
2022-10-05T01:43:08.327Z,101498.44
2022-10-05T01:46:14.570Z,101490.63
2022-10-05T01:48:59.799Z,101491.78
2022-10-05T01:51:37.054Z,101487.00
2022-10-05T01:54:10.164Z,101490.16
2022-10-05T01:56:43.272Z,101487.97
2022-10-05T01:59:33.966Z,101495.75
2022-10-05T02:02:04.294Z,101494.81
2022-10-05T02:07:54.222Z,101501.97
2022-10-05T02:10:28.227Z,101501.78
2022-10-05T02:13:00.931Z,101487.59
2022-10-05T02:15:33.887Z,101491.75
2022-10-05T02:18:08.784Z,101493.50
2022-10-05T02:20:39.586Z,101493.78
2022-10-05T02:23:13.238Z,101485.66
2022-10-05T02:25:46.053Z,101487.84
2022-10-05T02:28:19.232Z,101495.94
2022-10-05T02:30:54.707Z,101472.72
2022-10-05T02:33:30.028Z,101477.88
2022-10-05T02:36:05.329Z,101470.91
2022-10-05T02:38:43.286Z,101467.88
2022-10-05T02:41:25.812Z,101459.97
2022-10-05T02:44:13.963Z,101459.69
2022-10-05T02:47:00.550Z,101458.06
2022-10-05T02:49:51.526Z,101453.22
2022-10-05T02:52:37.234Z,101455.50
2022-10-05T02:55:33.076Z,101454.34
2022-10-05T02:58:11.455Z,101448.16
2022-10-05T03:00:47.920Z,101454.25
2022-10-05T03:03:32.268Z,101455.00
2022-10-05T03:06:02.423Z,101450.38
2022-10-05T03:08:54.107Z,101449.88
2022-10-05T03:11:45.395Z,101446.63
2022-10-05T03:14:33.295Z,101447.59
2022-10-05T03:17:14.828Z,101442.38
2022-10-05T03:19:51.177Z,101436.44
2022-10-05T03:22:46.891Z,101429.78
2022-10-05T03:25:31.763Z,101432.31
2022-10-05T03:28:11.024Z,101430.34
2022-10-05T03:31:03.429Z,101441.66
2022-10-05T03:33:29.871Z,101426.84
2022-10-05T03:36:10.772Z,101426.72
2022-10-05T03:38:49.378Z,101430.34
2022-10-05T03:41:32.484Z,101422.53
2022-10-05T03:43:58.845Z,101423.81
2022-10-05T03:47:01.678Z,101433.94
2022-10-05T03:49:37.235Z,101440.63
2022-10-05T03:52:15.488Z,101422.94
2022-10-05T03:54:47.931Z,101423.56
2022-10-05T03:57:27.121Z,101416.53
2022-10-05T04:00:04.440Z,101420.53
2022-10-05T04:02:43.621Z,101413.69
2022-10-05T04:05:10.012Z,101412.19
2022-10-05T04:07:51.850Z,101393.66
2022-10-05T04:10:27.110Z,101403.97
2022-10-05T04:13:20.544Z,101412.75
2022-10-05T04:15:54.269Z,101416.91
2022-10-05T04:18:33.667Z,101419.03
2022-10-05T04:21:10.519Z,101410.53
2022-10-05T04:23:49.212Z,101409.38
2022-10-05T04:26:20.166Z,101407.97
2022-10-05T04:29:00.851Z,101404.94
2022-10-05T04:31:56.074Z,101391.19
2022-10-05T04:34:58.066Z,101389.31
2022-10-05T04:37:53.620Z,101373.16
2022-10-05T04:41:03.528Z,101375.00
2022-10-05T04:43:49.012Z,101366.34
2022-10-05T04:46:40.383Z,101362.25
2022-10-05T04:49:28.108Z,101355.22
2022-10-05T04:52:25.019Z,101348.94
2022-10-05T04:55:21.868Z,101342.84
2022-10-05T04:58:02.566Z,101353.84
2022-10-05T05:00:48.101Z,101359.97
2022-10-05T05:03:29.953Z,101349.53
2022-10-05T05:06:21.440Z,101346.94
2022-10-05T05:09:08.918Z,101345.53
2022-10-05T05:11:57.057Z,101348.09
2022-10-05T05:14:42.065Z,101351.16
2022-10-05T05:17:46.089Z,101347.22
2022-10-05T05:20:23.071Z,101341.31
2022-10-05T05:23:03.674Z,101346.84
2022-10-05T05:25:46.727Z,101347.34
2022-10-05T05:28:25.382Z,101342.22
2022-10-05T05:31:00.688Z,101323.03
2022-10-05T05:33:34.097Z,101329.31
2022-10-05T05:36:25.209Z,101299.25
2022-10-05T05:39:18.700Z,101300.97
2022-10-05T05:42:17.029Z,101290.91
2022-10-05T05:44:50.416Z,101296.41
2022-10-05T05:47:24.857Z,101285.88
2022-10-05T05:50:07.416Z,101296.19
2022-10-05T05:52:50.303Z,101295.38
2022-10-05T05:55:30.590Z,101289.69
2022-10-05T05:58:21.306Z,101297.13
2022-10-05T06:01:05.959Z,101288.75
2022-10-05T06:03:51.391Z,101293.53
2022-10-05T06:06:18.070Z,101284.97
2022-10-05T06:08:53.067Z,101277.38
2022-10-05T06:11:42.016Z,101265.53
2022-10-05T06:14:17.139Z,101261.53
2022-10-05T06:16:52.006Z,101262.56
2022-10-05T06:19:22.574Z,101252.94
2022-10-05T06:22:15.104Z,101245.78
2022-10-05T06:25:13.736Z,101246.66
2022-10-05T06:28:12.857Z,101227.97
2022-10-05T06:30:51.342Z,101233.97
2022-10-05T06:33:41.022Z,101235.19
2022-10-05T06:36:42.899Z,101220.94
2022-10-05T06:39:34.300Z,101223.59
2022-10-05T06:42:41.943Z,101212.94
2022-10-05T06:45:20.691Z,101208.91
2022-10-05T06:48:05.325Z,101204.22
2022-10-05T06:50:45.988Z,101199.97
2022-10-05T06:53:30.562Z,101207.00
2022-10-05T06:55:56.922Z,101206.59
2022-10-05T06:58:50.250Z,101206.06
2022-10-05T07:01:23.464Z,101187.16
2022-10-05T07:04:15.631Z,101185.47
2022-10-05T07:06:53.923Z,101193.34
2022-10-05T07:09:39.106Z,101190.56
2022-10-05T07:12:30.239Z,101209.78
2022-10-05T07:15:03.420Z,101180.66
2022-10-05T07:17:53.330Z,101191.22
2022-10-05T07:20:31.527Z,101180.66
2022-10-05T07:23:13.561Z,101183.72
2022-10-05T07:25:50.010Z,101181.59
2022-10-05T07:28:41.057Z,101169.22
2022-10-05T07:31:24.097Z,101166.97
2022-10-05T07:34:05.963Z,101167.25
2022-10-05T07:37:01.521Z,101163.88
2022-10-05T07:39:59.179Z,101142.00
2022-10-05T07:42:52.660Z,101116.31
2022-10-05T07:45:28.574Z,101110.22
2022-10-05T07:47:57.688Z,101095.91
2022-10-05T07:50:27.207Z,101111.16
2022-10-05T07:53:02.080Z,101109.00
2022-10-05T07:55:36.496Z,101108.53
2022-10-05T07:58:09.949Z,101101.78
2022-10-05T08:01:14.242Z,101108.75
2022-10-05T08:03:49.831Z,101113.53
2022-10-05T08:06:30.226Z,101109.94
2022-10-05T08:09:04.307Z,101119.44
2022-10-05T08:11:39.155Z,101100.31
2022-10-05T08:14:16.948Z,101097.59
2022-10-05T08:16:46.812Z,101091.19
2022-10-05T08:19:53.001Z,101097.31
2022-10-05T08:22:31.807Z,101096.44
2022-10-05T08:25:14.467Z,101090.75
2022-10-05T08:28:03.004Z,101104.50
2022-10-05T08:30:35.576Z,101109.16
2022-10-05T08:33:12.356Z,101109.16
2022-10-05T08:35:43.803Z,101107.00
2022-10-05T08:38:16.614Z,101116.06
2022-10-05T08:41:05.899Z,101116.34
2022-10-05T08:44:12.295Z,101116.06
2022-10-05T08:46:51.003Z,101105.25
2022-10-05T08:49:52.578Z,101098.97
2022-10-05T08:52:29.159Z,101108.66
2022-10-05T08:55:07.322Z,101102.06
2022-10-05T08:57:59.794Z,101116.91
2022-10-05T09:00:52.883Z,101114.25
2022-10-05T09:03:43.559Z,101114.25
2022-10-05T09:06:21.971Z,101118.03
2022-10-05T09:09:13.053Z,101122.22
2022-10-05T09:11:57.616Z,101115.28
2022-10-05T09:14:39.563Z,101111.16
2022-10-05T09:17:45.569Z,101121.88
2022-10-05T09:20:30.387Z,101150.59
2022-10-05T09:23:12.508Z,101148.41
2022-10-05T09:25:56.351Z,101126.78
2022-10-05T09:28:22.776Z,101128.69
2022-10-05T09:31:16.303Z,101123.59
2022-10-05T09:33:59.774Z,101122.72
2022-10-05T09:36:54.536Z,101106.75
2022-10-05T09:39:57.786Z,101114.56
2022-10-05T09:43:04.022Z,101110.72
2022-10-05T09:46:11.883Z,101093.75
2022-10-05T09:48:44.290Z,101097.88
2022-10-05T09:51:35.431Z,101095.22
2022-10-05T09:54:33.578Z,101090.00
2022-10-05T09:57:15.099Z,101093.91
2022-10-05T09:59:51.832Z,101084.50
2022-10-05T10:02:33.357Z,101088.41
2022-10-05T10:05:21.339Z,101083.19
2022-10-05T10:07:53.838Z,101113.81
2022-10-05T10:10:35.607Z,101123.06
2022-10-05T10:13:21.361Z,101099.09
2022-10-05T10:16:03.578Z,101109.94
2022-10-05T10:18:48.363Z,101107.63
2022-10-05T10:21:42.303Z,101118.31
2022-10-05T10:24:19.342Z,101106.44
2022-10-05T10:27:04.470Z,101097.06
2022-10-05T10:29:30.839Z,101113.22
2022-10-05T10:32:12.567Z,101104.84
2022-10-05T10:34:52.793Z,101103.47
2022-10-05T10:37:35.196Z,101101.56
2022-10-05T10:40:14.368Z,101111.63
2022-10-05T10:42:56.340Z,101106.19
2022-10-05T10:45:37.922Z,101118.81
2022-10-05T10:48:11.318Z,101113.28
2022-10-05T10:50:40.700Z,101118.50
2022-10-05T10:53:34.683Z,101111.59
2022-10-05T10:56:19.645Z,101127.09
2022-10-05T10:59:17.259Z,101133.31
2022-10-05T11:02:01.178Z,101122.50
2022-10-05T11:04:37.167Z,101115.84
2022-10-05T11:07:16.112Z,101117.47
2022-10-05T11:09:56.201Z,101122.25
2022-10-05T11:13:12.220Z,101139.84
2022-10-05T11:19:03.866Z,101126.00
2022-10-05T11:21:54.471Z,101137.81
2022-10-05T11:24:57.886Z,101134.03
2022-10-05T11:28:06.386Z,101143.53
2022-10-05T11:31:08.730Z,101133.06
2022-10-05T11:33:56.863Z,101136.94
2022-10-05T11:36:29.299Z,101124.88
2022-10-05T11:39:33.430Z,101138.00
2022-10-05T11:42:15.099Z,101142.81
2022-10-05T11:45:29.141Z,101147.53
2022-10-05T11:48:22.884Z,101134.34
2022-10-05T11:51:27.798Z,101124.28
2022-10-05T11:54:17.557Z,101126.84
2022-10-05T11:57:13.078Z,101130.03
2022-10-05T11:59:56.457Z,101116.91
2022-10-05T12:03:03.462Z,101107.00
2022-10-05T12:05:32.943Z,101104.78
2022-10-05T12:08:25.659Z,101118.19
2022-10-05T12:11:29.629Z,101134.69
2022-10-05T12:14:03.264Z,101147.03
2022-10-05T12:16:52.683Z,101144.59
2022-10-05T12:19:27.215Z,101130.28
2022-10-05T12:21:59.972Z,101141.53
2022-10-05T12:24:35.237Z,101131.75
2022-10-05T12:27:10.980Z,101151.66
2022-10-05T12:29:43.514Z,101145.69
2022-10-05T12:32:17.035Z,101156.25
2022-10-05T12:35:01.670Z,101160.31
2022-10-05T12:37:28.707Z,101142.97
2022-10-05T12:40:01.779Z,101163.59
2022-10-05T12:42:31.765Z,101158.59
2022-10-05T12:45:29.938Z,101148.63
2022-10-05T12:48:22.059Z,101157.66
2022-10-05T12:51:10.692Z,101156.56
2022-10-05T12:53:40.067Z,101164.72
2022-10-05T12:56:21.719Z,101146.94
2022-10-05T12:59:07.618Z,101155.19
2022-10-05T13:01:40.109Z,101161.09
2022-10-05T13:04:24.844Z,101159.84
2022-10-05T13:07:12.899Z,101169.47
2022-10-05T13:10:11.623Z,101168.28
2022-10-05T13:12:52.990Z,101175.13
2022-10-05T13:15:41.507Z,101166.16
2022-10-05T13:18:18.210Z,101176.69
2022-10-05T13:20:56.324Z,101172.44
2022-10-05T13:23:31.952Z,101170.97
2022-10-05T13:26:08.871Z,101172.28
2022-10-05T13:28:44.256Z,101170.13
2022-10-05T13:31:40.814Z,101179.84
2022-10-05T13:34:27.984Z,101176.59
2022-10-05T13:37:07.021Z,101182.50
2022-10-05T13:40:12.615Z,101167.81
2022-10-05T13:42:48.220Z,101172.91
2022-10-05T13:45:27.170Z,101180.31
2022-10-05T13:48:05.657Z,101185.22
2022-10-05T13:50:35.309Z,101180.47
2022-10-05T13:53:13.439Z,101189.28
2022-10-05T13:55:49.643Z,101184.84
2022-10-05T13:59:11.789Z,101189.00
2022-10-05T14:01:46.931Z,101188.50
2022-10-05T14:04:21.967Z,101190.66
2022-10-05T14:06:49.040Z,101195.56
2022-10-05T14:09:30.641Z,101187.03
2022-10-05T14:12:02.805Z,101214.56
2022-10-05T14:14:31.641Z,101184.31
2022-10-05T14:17:05.982Z,101180.81
2022-10-05T14:19:41.798Z,101182.97
2022-10-05T14:22:12.953Z,101177.47
2022-10-05T14:24:59.066Z,101188.19
2022-10-05T14:27:33.218Z,101190.38
2022-10-05T14:30:01.712Z,101185.88
2022-10-05T14:32:43.175Z,101194.31
2022-10-05T14:35:18.488Z,101198.66
2022-10-05T14:37:50.457Z,101187.00
2022-10-05T14:40:43.197Z,101189.50
2022-10-05T14:43:15.676Z,101185.09
2022-10-05T14:45:57.624Z,101177.16
2022-10-05T14:48:29.047Z,101186.31
2022-10-05T14:51:03.247Z,101177.28
2022-10-05T14:53:44.331Z,101176.44
2022-10-05T14:56:17.070Z,101167.81
2022-10-05T14:58:49.610Z,101173.94
2022-10-05T15:01:39.173Z,101174.16
2022-10-05T15:04:30.600Z,101180.84
2022-10-05T15:07:09.299Z,101174.66
2022-10-05T15:09:49.600Z,101163.22
2022-10-05T15:12:29.218Z,101161.47
2022-10-05T15:15:03.253Z,101153.94
2022-10-05T15:17:45.019Z,101150.06
2022-10-05T15:20:24.645Z,101155.69
2022-10-05T15:23:29.564Z,101150.13
2022-10-05T15:26:15.036Z,101158.41
2022-10-05T15:28:48.241Z,101148.72
2022-10-05T15:31:48.836Z,101153.03
2022-10-05T15:34:34.082Z,101141.53
2022-10-05T15:37:26.062Z,101148.38
2022-10-05T15:39:56.668Z,101146.31
2022-10-05T15:42:38.328Z,101156.09
2022-10-05T15:45:20.193Z,101159.69
2022-10-05T15:48:01.708Z,101148.22
2022-10-05T15:50:33.946Z,101155.09
2022-10-05T15:53:10.635Z,101155.09
2022-10-05T15:55:52.110Z,101158.28
2022-10-05T15:58:38.629Z,101170.09
2022-10-05T16:01:40.168Z,101162.53
2022-10-05T16:04:18.099Z,101164.88
2022-10-05T16:07:12.343Z,101168.72
2022-10-05T16:09:56.640Z,101171.38
2022-10-05T16:12:23.000Z,101181.03
2022-10-05T16:15:08.497Z,101171.16
2022-10-05T16:17:47.905Z,101171.38
2022-10-05T16:20:57.563Z,101179.63
2022-10-05T16:23:58.114Z,101182.63
2022-10-05T16:26:24.511Z,101192.22
2022-10-05T16:29:12.948Z,101187.59
2022-10-05T16:31:57.466Z,101190.13
2022-10-05T16:34:54.207Z,101192.94
2022-10-05T16:37:58.481Z,101208.81
2022-10-05T16:40:45.156Z,101206.56
2022-10-05T16:43:28.930Z,101216.06
2022-10-05T16:46:12.820Z,101216.28
2022-10-05T16:48:49.640Z,101214.19
2022-10-05T16:51:36.620Z,101204.22
2022-10-05T16:54:11.513Z,101209.44
2022-10-05T16:56:46.739Z,101211.16
2022-10-05T16:59:35.081Z,101209.34
2022-10-05T17:02:29.958Z,101206.25
2022-10-05T17:05:18.611Z,101205.25
2022-10-05T17:08:19.208Z,101211.84
2022-10-05T17:11:05.366Z,101219.41
2022-10-05T17:14:07.740Z,101225.97
2022-10-05T17:16:40.382Z,101223.44
2022-10-05T17:19:20.735Z,101222.28
2022-10-05T17:22:00.542Z,101217.13
2022-10-05T17:24:32.678Z,101216.94
2022-10-05T17:27:12.436Z,101223.13
2022-10-05T17:29:41.835Z,101228.91
2022-10-05T17:32:30.135Z,101222.97
2022-10-05T17:35:00.648Z,101221.16
2022-10-05T17:37:27.003Z,101222.28
2022-10-05T17:39:55.992Z,101212.56
2022-10-05T17:42:31.244Z,101223.19
2022-10-05T17:45:20.670Z,101224.09
2022-10-05T17:48:03.215Z,101227.66
2022-10-05T17:51:04.177Z,101227.03
2022-10-05T17:53:52.332Z,101224.03
2022-10-05T17:56:20.214Z,101215.16
2022-10-05T17:58:54.460Z,101218.94
2022-10-05T18:01:41.460Z,101211.66
2022-10-05T18:04:10.938Z,101216.09
2022-10-05T18:07:22.980Z,101208.44
2022-10-05T18:10:16.859Z,101199.22
2022-10-05T18:12:48.725Z,101204.56
2022-10-05T18:15:24.174Z,101201.81
2022-10-05T18:17:57.440Z,101204.22
2022-10-05T18:20:23.839Z,101198.34
2022-10-05T18:22:52.942Z,101203.53
2022-10-05T18:25:27.079Z,101197.34
2022-10-05T18:27:58.248Z,101203.94
2022-10-05T18:30:26.814Z,101196.50
2022-10-05T18:32:55.927Z,101206.09
2022-10-05T18:35:50.396Z,101203.41
2022-10-05T18:38:28.082Z,101194.28
2022-10-05T18:41:03.312Z,101198.28
2022-10-05T18:43:38.617Z,101200.47
2022-10-05T18:46:14.177Z,101198.88
2022-10-05T18:49:03.642Z,101194.75
2022-10-05T18:51:58.648Z,101202.53
2022-10-05T18:54:40.774Z,101196.44
2022-10-05T18:57:41.227Z,101179.28
2022-10-05T19:00:13.345Z,101185.47
2022-10-05T19:02:45.948Z,101166.72
2022-10-05T19:05:46.389Z,101177.06
2022-10-05T19:08:20.499Z,101160.69
2022-10-05T19:11:19.391Z,101170.28
2022-10-05T19:13:57.871Z,101169.00
2022-10-05T19:16:31.878Z,101154.38
2022-10-05T19:19:24.011Z,101146.13
2022-10-05T19:22:27.676Z,101158.53
2022-10-05T19:25:14.364Z,101166.38
2022-10-05T19:28:13.090Z,101159.56
2022-10-05T19:30:55.523Z,101155.06
2022-10-05T19:33:25.988Z,101139.72
2022-10-05T19:36:16.006Z,101152.41
2022-10-05T19:38:48.669Z,101142.09
2022-10-05T19:41:27.414Z,101142.31
2022-10-05T19:44:19.804Z,101134.63
2022-10-05T19:46:49.245Z,101140.38
2022-10-05T19:49:36.501Z,101137.00
2022-10-05T19:52:10.908Z,101131.16
2022-10-05T19:54:37.919Z,101137.47
2022-10-05T19:57:16.997Z,101119.69
2022-10-05T19:59:47.717Z,101123.59
2022-10-05T20:02:16.828Z,101127.00
2022-10-05T20:04:47.454Z,101140.53
2022-10-05T20:07:17.085Z,101143.06
2022-10-05T20:10:36.092Z,101144.53
2022-10-05T20:13:04.508Z,101141.25
2022-10-05T20:15:52.143Z,101127.22
2022-10-05T20:18:56.168Z,101134.41
2022-10-05T20:21:59.727Z,101122.13
2022-10-05T20:24:28.207Z,101121.63
2022-10-05T20:27:06.645Z,101124.78
2022-10-05T20:29:41.073Z,101127.47
2022-10-05T20:32:17.828Z,101132.19
2022-10-05T20:34:46.728Z,101137.19
2022-10-05T20:37:18.558Z,101137.06
2022-10-05T20:39:45.369Z,101128.53
2022-10-05T20:42:11.922Z,101130.84
2022-10-05T20:44:38.455Z,101118.72
2022-10-05T20:47:08.667Z,101134.00
2022-10-05T20:49:36.462Z,101125.13
2022-10-05T20:52:06.460Z,101123.75
2022-10-05T20:54:32.943Z,101115.38
2022-10-05T20:56:59.454Z,101145.44
2022-10-05T20:59:26.286Z,101133.50
2022-10-05T21:01:52.846Z,101133.63
2022-10-05T21:04:22.628Z,101127.19
2022-10-05T21:06:49.335Z,101152.03
2022-10-05T21:09:21.354Z,101147.69
2022-10-05T21:11:52.885Z,101150.13
2022-10-05T21:14:19.347Z,101165.34
2022-10-05T21:16:45.998Z,101168.84
2022-10-05T21:19:14.306Z,101170.06
2022-10-05T21:21:45.077Z,101165.94
2022-10-05T21:24:14.187Z,101164.00
2022-10-05T21:26:41.684Z,101175.31
2022-10-05T21:29:12.535Z,101178.00
2022-10-05T21:31:40.274Z,101188.72
2022-10-05T21:34:07.504Z,101186.88
2022-10-05T21:36:34.691Z,101189.31
2022-10-05T21:39:01.216Z,101207.47
2022-10-05T21:41:27.676Z,101194.78
2022-10-05T21:43:54.212Z,101216.34
2022-10-05T21:46:22.843Z,101220.22
2022-10-05T21:48:49.810Z,101199.66
2022-10-05T21:51:18.804Z,101207.69
2022-10-05T21:54:10.839Z,101212.19
2022-10-05T21:56:40.351Z,101212.69
2022-10-05T21:59:10.867Z,101217.81
2022-10-05T22:01:37.445Z,101210.50
2022-10-05T22:04:05.120Z,101206.34
2022-10-05T22:06:32.459Z,101236.06
2022-10-05T22:08:59.602Z,101250.75
2022-10-05T22:11:26.656Z,101258.16
2022-10-05T22:13:53.728Z,101246.69
2022-10-05T22:16:23.067Z,101278.34
2022-10-05T22:18:50.043Z,101278.91
2022-10-05T22:21:17.159Z,101302.41
2022-10-05T22:23:45.619Z,101343.06
2022-10-05T22:26:14.223Z,101340.06
2022-10-05T22:28:42.540Z,101332.19
2022-10-05T22:31:10.226Z,101309.50
2022-10-05T22:33:37.134Z,101317.00
2022-10-05T22:36:04.669Z,101315.28
2022-10-05T22:38:31.414Z,101338.56
2022-10-05T22:40:58.257Z,101333.22
2022-10-05T22:43:26.876Z,101315.94
2022-10-05T22:45:53.882Z,101323.94
2022-10-05T22:48:20.509Z,101310.59
2022-10-05T22:50:47.579Z,101315.41
2022-10-05T22:53:14.537Z,101320.19
2022-10-05T22:55:41.263Z,101339.19
2022-10-05T22:58:07.722Z,101378.81
2022-10-05T23:00:56.477Z,101380.94
2022-10-05T23:03:20.564Z,101398.91
2022-10-05T23:05:46.991Z,101381.19
2022-10-05T23:08:13.403Z,101363.66
2022-10-05T23:10:39.787Z,101371.09
2022-10-05T23:13:06.269Z,101375.41
2022-10-05T23:15:33.727Z,101405.41
2022-10-05T23:18:00.226Z,101406.16
2022-10-05T23:20:26.932Z,101385.94
2022-10-05T23:22:53.725Z,101394.16
2022-10-05T23:25:22.074Z,101393.00
2022-10-05T23:27:48.474Z,101402.72
2022-10-05T23:30:14.973Z,101431.47
2022-10-05T23:32:42.947Z,101450.22
2022-10-05T23:35:11.847Z,101447.06
2022-10-05T23:37:45.127Z,101433.19
2022-10-05T23:40:13.811Z,101444.09
2022-10-05T23:42:40.907Z,101472.50
2022-10-05T23:45:09.769Z,101464.53
2022-10-05T23:47:36.801Z,101460.47
2022-10-05T23:50:05.267Z,101463.44
2022-10-05T23:52:31.698Z,101483.28
2022-10-05T23:54:58.108Z,101485.81
2022-10-05T23:57:24.714Z,101500.28
2022-10-05T23:59:51.164Z,101509.28
